sensor_id;sensor_type;location;lat;lon;timestamp;P1;durP1;ratioP1;P2;durP2;ratioP2
48881;SDS011;57063;51.406;-2.402;2022-10-17T00:01:15;24.05;;;3.08;;
48881;SDS011;57063;51.406;-2.402;2022-10-17T00:03:46;21.90;;;3.07;;
48881;SDS011;57063;51.406;-2.402;2022-10-17T00:06:19;23.80;;;3.35;;
48881;SDS011;57063;51.406;-2.402;2022-10-17T00:09:00;24.95;;;3.42;;
48881;SDS011;57063;51.406;-2.402;2022-10-17T00:11:28;25.23;;;3.15;;
48881;SDS011;57063;51.406;-2.402;2022-10-17T00:13:54;21.40;;;3.05;;
48881;SDS011;57063;51.406;-2.402;2022-10-17T00:16:31;20.25;;;3.17;;
48881;SDS011;57063;51.406;-2.402;2022-10-17T00:19:01;21.00;;;3.53;;
48881;SDS011;57063;51.406;-2.402;2022-10-17T00:21:27;22.15;;;2.70;;
48881;SDS011;57063;51.406;-2.402;2022-10-17T00:23:53;21.20;;;3.72;;
48881;SDS011;57063;51.406;-2.402;2022-10-17T00:28:52;24.38;;;2.80;;
48881;SDS011;57063;51.406;-2.402;2022-10-17T00:31:19;19.90;;;2.35;;
48881;SDS011;57063;51.406;-2.402;2022-10-17T00:33:48;30.38;;;2.97;;
48881;SDS011;57063;51.406;-2.402;2022-10-17T00:36:15;21.13;;;2.65;;
48881;SDS011;57063;51.406;-2.402;2022-10-17T00:38:43;22.27;;;2.90;;
48881;SDS011;57063;51.406;-2.402;2022-10-17T00:41:11;23.60;;;2.70;;
48881;SDS011;57063;51.406;-2.402;2022-10-17T00:43:48;23.20;;;3.00;;
48881;SDS011;57063;51.406;-2.402;2022-10-17T00:46:15;12.18;;;2.15;;
48881;SDS011;57063;51.406;-2.402;2022-10-17T00:48:41;20.05;;;2.63;;
48881;SDS011;57063;51.406;-2.402;2022-10-17T00:51:13;23.33;;;2.95;;
48881;SDS011;57063;51.406;-2.402;2022-10-17T00:54:12;20.52;;;2.90;;
48881;SDS011;57063;51.406;-2.402;2022-10-17T00:56:40;22.63;;;4.05;;
48881;SDS011;57063;51.406;-2.402;2022-10-17T00:59:09;17.02;;;1.95;;
48881;SDS011;57063;51.406;-2.402;2022-10-17T01:01:44;23.67;;;2.72;;
48881;SDS011;57063;51.406;-2.402;2022-10-17T01:04:17;17.88;;;2.30;;
48881;SDS011;57063;51.406;-2.402;2022-10-17T01:06:43;18.05;;;2.45;;
48881;SDS011;57063;51.406;-2.402;2022-10-17T01:09:12;18.48;;;2.85;;
48881;SDS011;57063;51.406;-2.402;2022-10-17T01:12:02;21.88;;;3.10;;
48881;SDS011;57063;51.406;-2.402;2022-10-17T01:25:48;23.60;;;3.10;;
48881;SDS011;57063;51.406;-2.402;2022-10-17T01:31:21;22.50;;;3.38;;
48881;SDS011;57063;51.406;-2.402;2022-10-17T01:39:30;17.77;;;3.47;;
48881;SDS011;57063;51.406;-2.402;2022-10-17T01:42:21;31.55;;;2.92;;
48881;SDS011;57063;51.406;-2.402;2022-10-17T01:45:19;24.02;;;3.30;;
48881;SDS011;57063;51.406;-2.402;2022-10-17T01:47:50;21.15;;;3.42;;
48881;SDS011;57063;51.406;-2.402;2022-10-17T01:50:20;29.88;;;3.17;;
48881;SDS011;57063;51.406;-2.402;2022-10-17T01:52:51;28.67;;;3.28;;
48881;SDS011;57063;51.406;-2.402;2022-10-17T01:55:24;25.70;;;3.58;;
48881;SDS011;57063;51.406;-2.402;2022-10-17T01:57:59;25.25;;;3.88;;
48881;SDS011;57063;51.406;-2.402;2022-10-17T02:00:58;26.60;;;3.30;;
48881;SDS011;57063;51.406;-2.402;2022-10-17T02:03:27;24.63;;;4.22;;
48881;SDS011;57063;51.406;-2.402;2022-10-17T02:05:59;27.10;;;3.88;;
48881;SDS011;57063;51.406;-2.402;2022-10-17T02:08:48;28.63;;;4.07;;
48881;SDS011;57063;51.406;-2.402;2022-10-17T02:11:22;22.65;;;3.72;;
48881;SDS011;57063;51.406;-2.402;2022-10-17T02:22:10;33.28;;;3.65;;
48881;SDS011;57063;51.406;-2.402;2022-10-17T02:27:36;23.15;;;3.20;;
48881;SDS011;57063;51.406;-2.402;2022-10-17T02:30:33;14.05;;;2.65;;
48881;SDS011;57063;51.406;-2.402;2022-10-17T02:33:29;32.63;;;3.28;;
48881;SDS011;57063;51.406;-2.402;2022-10-17T02:36:14;28.30;;;3.60;;
48881;SDS011;57063;51.406;-2.402;2022-10-17T02:38:50;31.48;;;4.40;;
48881;SDS011;57063;51.406;-2.402;2022-10-17T02:43:52;22.80;;;3.00;;
48881;SDS011;57063;51.406;-2.402;2022-10-17T02:46:29;27.52;;;3.47;;
48881;SDS011;57063;51.406;-2.402;2022-10-17T02:51:35;22.15;;;3.53;;
48881;SDS011;57063;51.406;-2.402;2022-10-17T02:54:23;24.08;;;5.10;;
48881;SDS011;57063;51.406;-2.402;2022-10-17T02:57:07;18.10;;;3.03;;
48881;SDS011;57063;51.406;-2.402;2022-10-17T03:00:04;36.67;;;4.68;;
48881;SDS011;57063;51.406;-2.402;2022-10-17T03:02:44;19.17;;;2.90;;
48881;SDS011;57063;51.406;-2.402;2022-10-17T03:05:47;28.42;;;3.90;;
48881;SDS011;57063;51.406;-2.402;2022-10-17T03:11:28;19.80;;;2.80;;
48881;SDS011;57063;51.406;-2.402;2022-10-17T03:16:22;29.85;;;3.38;;
48881;SDS011;57063;51.406;-2.402;2022-10-17T03:18:47;23.85;;;5.00;;
48881;SDS011;57063;51.406;-2.402;2022-10-17T03:21:15;33.95;;;3.63;;
48881;SDS011;57063;51.406;-2.402;2022-10-17T03:23:46;29.80;;;4.25;;
48881;SDS011;57063;51.406;-2.402;2022-10-17T03:26:20;17.23;;;3.83;;
48881;SDS011;57063;51.406;-2.402;2022-10-17T03:28:54;23.20;;;2.38;;
48881;SDS011;57063;51.406;-2.402;2022-10-17T03:31:36;26.92;;;3.90;;
48881;SDS011;57063;51.406;-2.402;2022-10-17T03:34:02;21.38;;;3.15;;
48881;SDS011;57063;51.406;-2.402;2022-10-17T03:36:28;22.42;;;2.85;;
48881;SDS011;57063;51.406;-2.402;2022-10-17T03:38:54;22.25;;;2.85;;
48881;SDS011;57063;51.406;-2.402;2022-10-17T03:41:19;31.80;;;4.00;;
48881;SDS011;57063;51.406;-2.402;2022-10-17T03:43:45;20.27;;;2.50;;
48881;SDS011;57063;51.406;-2.402;2022-10-17T03:46:11;21.90;;;2.67;;
48881;SDS011;57063;51.406;-2.402;2022-10-17T03:48:37;18.55;;;2.67;;
48881;SDS011;57063;51.406;-2.402;2022-10-17T03:51:04;27.00;;;2.10;;
48881;SDS011;57063;51.406;-2.402;2022-10-17T03:53:31;14.75;;;2.20;;
48881;SDS011;57063;51.406;-2.402;2022-10-17T03:56:07;23.63;;;3.08;;
48881;SDS011;57063;51.406;-2.402;2022-10-17T03:58:37;15.95;;;2.28;;
48881;SDS011;57063;51.406;-2.402;2022-10-17T04:01:04;15.57;;;3.00;;
48881;SDS011;57063;51.406;-2.402;2022-10-17T04:03:31;28.58;;;2.88;;
48881;SDS011;57063;51.406;-2.402;2022-10-17T04:06:00;20.60;;;2.92;;
48881;SDS011;57063;51.406;-2.402;2022-10-17T04:08:27;29.25;;;4.35;;
48881;SDS011;57063;51.406;-2.402;2022-10-17T04:10:57;22.48;;;3.22;;
48881;SDS011;57063;51.406;-2.402;2022-10-17T04:13:24;20.85;;;2.83;;
48881;SDS011;57063;51.406;-2.402;2022-10-17T04:15:53;26.35;;;3.38;;
48881;SDS011;57063;51.406;-2.402;2022-10-17T04:18:20;26.83;;;3.45;;
48881;SDS011;57063;51.406;-2.402;2022-10-17T04:20:45;29.58;;;3.67;;
48881;SDS011;57063;51.406;-2.402;2022-10-17T04:23:11;25.38;;;3.75;;
48881;SDS011;57063;51.406;-2.402;2022-10-17T04:25:37;20.60;;;2.42;;
48881;SDS011;57063;51.406;-2.402;2022-10-17T04:28:02;27.05;;;3.55;;
48881;SDS011;57063;51.406;-2.402;2022-10-17T04:30:28;24.85;;;3.03;;
48881;SDS011;57063;51.406;-2.402;2022-10-17T04:32:53;20.85;;;3.13;;
48881;SDS011;57063;51.406;-2.402;2022-10-17T04:35:19;23.20;;;2.90;;
48881;SDS011;57063;51.406;-2.402;2022-10-17T04:37:44;27.83;;;4.43;;
48881;SDS011;57063;51.406;-2.402;2022-10-17T04:40:10;25.95;;;3.22;;
48881;SDS011;57063;51.406;-2.402;2022-10-17T04:42:36;21.55;;;2.92;;
48881;SDS011;57063;51.406;-2.402;2022-10-17T04:45:02;22.38;;;2.55;;
48881;SDS011;57063;51.406;-2.402;2022-10-17T04:47:27;18.50;;;2.65;;
48881;SDS011;57063;51.406;-2.402;2022-10-17T04:49:56;28.10;;;3.53;;
48881;SDS011;57063;51.406;-2.402;2022-10-17T04:52:21;19.42;;;2.92;;
48881;SDS011;57063;51.406;-2.402;2022-10-17T04:55:01;17.52;;;2.70;;
48881;SDS011;57063;51.406;-2.402;2022-10-17T04:57:33;20.60;;;2.28;;
48881;SDS011;57063;51.406;-2.402;2022-10-17T04:59:59;21.15;;;2.78;;
48881;SDS011;57063;51.406;-2.402;2022-10-17T05:02:25;15.07;;;2.97;;
48881;SDS011;57063;51.406;-2.402;2022-10-17T05:04:50;28.45;;;3.60;;
48881;SDS011;57063;51.406;-2.402;2022-10-17T05:07:16;21.85;;;2.60;;
48881;SDS011;57063;51.406;-2.402;2022-10-17T05:09:41;13.85;;;2.40;;
48881;SDS011;57063;51.406;-2.402;2022-10-17T05:12:07;17.20;;;2.60;;
48881;SDS011;57063;51.406;-2.402;2022-10-17T05:14:32;18.75;;;3.45;;
48881;SDS011;57063;51.406;-2.402;2022-10-17T05:17:05;21.70;;;2.33;;
48881;SDS011;57063;51.406;-2.402;2022-10-17T05:19:37;22.88;;;2.88;;
48881;SDS011;57063;51.406;-2.402;2022-10-17T05:24:28;28.17;;;3.47;;
48881;SDS011;57063;51.406;-2.402;2022-10-17T05:26:54;14.50;;;3.38;;
48881;SDS011;57063;51.406;-2.402;2022-10-17T05:29:19;19.42;;;3.97;;
48881;SDS011;57063;51.406;-2.402;2022-10-17T05:31:45;21.67;;;3.47;;
48881;SDS011;57063;51.406;-2.402;2022-10-17T05:34:11;17.83;;;2.58;;
48881;SDS011;57063;51.406;-2.402;2022-10-17T05:36:36;23.58;;;3.00;;
48881;SDS011;57063;51.406;-2.402;2022-10-17T05:39:02;21.95;;;3.38;;
48881;SDS011;57063;51.406;-2.402;2022-10-17T05:41:27;26.65;;;3.63;;
48881;SDS011;57063;51.406;-2.402;2022-10-17T05:43:53;21.23;;;3.78;;
48881;SDS011;57063;51.406;-2.402;2022-10-17T05:46:22;15.45;;;2.60;;
48881;SDS011;57063;51.406;-2.402;2022-10-17T05:48:51;22.48;;;3.60;;
48881;SDS011;57063;51.406;-2.402;2022-10-17T05:51:20;14.18;;;2.92;;
48881;SDS011;57063;51.406;-2.402;2022-10-17T05:53:45;25.67;;;4.97;;
48881;SDS011;57063;51.406;-2.402;2022-10-17T05:56:19;32.17;;;3.33;;
48881;SDS011;57063;51.406;-2.402;2022-10-17T05:58:53;34.55;;;4.85;;
48881;SDS011;57063;51.406;-2.402;2022-10-17T06:01:28;24.20;;;2.85;;
48881;SDS011;57063;51.406;-2.402;2022-10-17T06:03:54;30.48;;;3.63;;
48881;SDS011;57063;51.406;-2.402;2022-10-17T07:21:17;25.17;;;3.65;;
48881;SDS011;57063;51.406;-2.402;2022-10-17T07:23:44;23.05;;;3.22;;
48881;SDS011;57063;51.406;-2.402;2022-10-17T07:29:16;30.73;;;4.00;;
48881;SDS011;57063;51.406;-2.402;2022-10-17T07:32:35;22.95;;;3.67;;
48881;SDS011;57063;51.406;-2.402;2022-10-17T07:38:36;28.20;;;4.50;;
48881;SDS011;57063;51.406;-2.402;2022-10-17T07:44:34;16.38;;;2.60;;
48881;SDS011;57063;51.406;-2.402;2022-10-17T07:47:03;17.70;;;2.58;;
48881;SDS011;57063;51.406;-2.402;2022-10-17T07:49:31;20.38;;;3.40;;
48881;SDS011;57063;51.406;-2.402;2022-10-17T07:51:59;26.52;;;3.53;;
48881;SDS011;57063;51.406;-2.402;2022-10-17T07:54:38;18.80;;;3.53;;
48881;SDS011;57063;51.406;-2.402;2022-10-17T07:57:13;23.77;;;4.32;;
48881;SDS011;57063;51.406;-2.402;2022-10-17T07:59:46;34.83;;;4.10;;
48881;SDS011;57063;51.406;-2.402;2022-10-17T08:02:29;20.50;;;2.50;;
48881;SDS011;57063;51.406;-2.402;2022-10-17T08:04:57;26.40;;;3.80;;
48881;SDS011;57063;51.406;-2.402;2022-10-17T08:07:34;22.05;;;3.15;;
48881;SDS011;57063;51.406;-2.402;2022-10-17T08:10:16;21.98;;;4.25;;
48881;SDS011;57063;51.406;-2.402;2022-10-17T08:12:54;29.52;;;3.55;;
48881;SDS011;57063;51.406;-2.402;2022-10-17T08:15:48;23.73;;;2.85;;
48881;SDS011;57063;51.406;-2.402;2022-10-17T08:20:42;15.05;;;2.38;;
48881;SDS011;57063;51.406;-2.402;2022-10-17T08:23:08;19.63;;;3.83;;
48881;SDS011;57063;51.406;-2.402;2022-10-17T08:25:33;21.13;;;3.42;;
48881;SDS011;57063;51.406;-2.402;2022-10-17T08:28:02;19.50;;;3.25;;
48881;SDS011;57063;51.406;-2.402;2022-10-17T08:30:28;34.13;;;4.50;;
48881;SDS011;57063;51.406;-2.402;2022-10-17T08:32:54;19.80;;;3.65;;
48881;SDS011;57063;51.406;-2.402;2022-10-17T08:35:20;15.80;;;2.85;;
48881;SDS011;57063;51.406;-2.402;2022-10-17T08:37:46;21.05;;;3.33;;
48881;SDS011;57063;51.406;-2.402;2022-10-17T08:40:22;21.38;;;3.13;;
48881;SDS011;57063;51.406;-2.402;2022-10-17T08:43:01;10.85;;;2.38;;
48881;SDS011;57063;51.406;-2.402;2022-10-17T08:46:03;16.27;;;2.67;;
48881;SDS011;57063;51.406;-2.402;2022-10-17T08:48:32;13.02;;;2.97;;
48881;SDS011;57063;51.406;-2.402;2022-10-17T08:51:02;14.05;;;2.88;;
48881;SDS011;57063;51.406;-2.402;2022-10-17T08:53:37;17.33;;;3.10;;
48881;SDS011;57063;51.406;-2.402;2022-10-17T08:56:18;14.90;;;2.75;;
48881;SDS011;57063;51.406;-2.402;2022-10-17T08:58:46;16.83;;;3.42;;
48881;SDS011;57063;51.406;-2.402;2022-10-17T09:01:31;14.15;;;2.50;;
48881;SDS011;57063;51.406;-2.402;2022-10-17T09:04:14;15.60;;;3.10;;
48881;SDS011;57063;51.406;-2.402;2022-10-17T09:07:09;15.75;;;3.47;;
48881;SDS011;57063;51.406;-2.402;2022-10-17T09:10:20;15.25;;;2.78;;
48881;SDS011;57063;51.406;-2.402;2022-10-17T09:12:41;11.30;;;2.45;;
48881;SDS011;57063;51.406;-2.402;2022-10-17T09:18:38;10.60;;;2.40;;
48881;SDS011;57063;51.406;-2.402;2022-10-17T09:23:50;12.20;;;2.63;;
48881;SDS011;57063;51.406;-2.402;2022-10-17T09:26:19;10.57;;;2.85;;
48881;SDS011;57063;51.406;-2.402;2022-10-17T09:28:50;9.98;;;2.53;;
48881;SDS011;57063;51.406;-2.402;2022-10-17T09:31:21;9.90;;;2.53;;
48881;SDS011;57063;51.406;-2.402;2022-10-17T09:33:49;11.93;;;2.53;;
48881;SDS011;57063;51.406;-2.402;2022-10-17T09:36:17;7.22;;;1.80;;
48881;SDS011;57063;51.406;-2.402;2022-10-17T09:38:59;23.38;;;3.00;;
48881;SDS011;57063;51.406;-2.402;2022-10-17T09:41:28;16.50;;;3.10;;
48881;SDS011;57063;51.406;-2.402;2022-10-17T09:44:22;14.25;;;2.63;;
48881;SDS011;57063;51.406;-2.402;2022-10-17T09:49:58;9.98;;;2.72;;
48881;SDS011;57063;51.406;-2.402;2022-10-17T09:52:27;12.88;;;2.10;;
48881;SDS011;57063;51.406;-2.402;2022-10-17T09:55:03;14.15;;;2.35;;
48881;SDS011;57063;51.406;-2.402;2022-10-17T10:00:24;10.52;;;2.60;;
48881;SDS011;57063;51.406;-2.402;2022-10-17T10:03:14;9.52;;;2.10;;
48881;SDS011;57063;51.406;-2.402;2022-10-17T10:08:29;11.38;;;2.25;;
48881;SDS011;57063;51.406;-2.402;2022-10-17T10:10:56;12.70;;;2.28;;
48881;SDS011;57063;51.406;-2.402;2022-10-17T10:13:25;10.65;;;1.80;;
48881;SDS011;57063;51.406;-2.402;2022-10-17T10:15:51;12.88;;;2.58;;
48881;SDS011;57063;51.406;-2.402;2022-10-17T10:20:52;7.70;;;2.20;;
48881;SDS011;57063;51.406;-2.402;2022-10-17T10:23:34;7.00;;;2.05;;
48881;SDS011;57063;51.406;-2.402;2022-10-17T10:26:21;11.27;;;2.50;;
48881;SDS011;57063;51.406;-2.402;2022-10-17T10:28:59;15.68;;;4.07;;
48881;SDS011;57063;51.406;-2.402;2022-10-17T10:31:36;12.18;;;2.33;;
48881;SDS011;57063;51.406;-2.402;2022-10-17T10:37:00;13.90;;;1.95;;
48881;SDS011;57063;51.406;-2.402;2022-10-17T10:39:51;8.50;;;1.75;;
48881;SDS011;57063;51.406;-2.402;2022-10-17T10:45:21;12.05;;;2.10;;
48881;SDS011;57063;51.406;-2.402;2022-10-17T10:47:55;8.02;;;1.90;;
48881;SDS011;57063;51.406;-2.402;2022-10-17T10:50:24;13.13;;;2.28;;
48881;SDS011;57063;51.406;-2.402;2022-10-17T11:01:55;6.90;;;1.20;;
48881;SDS011;57063;51.406;-2.402;2022-10-17T11:04:34;7.57;;;1.80;;
48881;SDS011;57063;51.406;-2.402;2022-10-17T11:07:12;13.70;;;3.00;;
48881;SDS011;57063;51.406;-2.402;2022-10-17T11:18:03;15.18;;;3.80;;
48881;SDS011;57063;51.406;-2.402;2022-10-17T11:23:26;7.30;;;1.95;;
48881;SDS011;57063;51.406;-2.402;2022-10-17T11:26:21;12.05;;;2.08;;
48881;SDS011;57063;51.406;-2.402;2022-10-17T11:28:56;8.65;;;2.17;;
48881;SDS011;57063;51.406;-2.402;2022-10-17T11:31:25;8.63;;;1.48;;
48881;SDS011;57063;51.406;-2.402;2022-10-17T11:34:08;8.07;;;1.88;;
48881;SDS011;57063;51.406;-2.402;2022-10-17T11:36:49;9.05;;;1.90;;
48881;SDS011;57063;51.406;-2.402;2022-10-17T11:40:02;9.13;;;2.58;;
48881;SDS011;57063;51.406;-2.402;2022-10-17T11:42:31;10.30;;;2.03;;
48881;SDS011;57063;51.406;-2.402;2022-10-17T11:45:03;5.75;;;1.45;;
48881;SDS011;57063;51.406;-2.402;2022-10-17T11:47:38;8.05;;;1.50;;
48881;SDS011;57063;51.406;-2.402;2022-10-17T11:55:29;8.07;;;2.47;;
48881;SDS011;57063;51.406;-2.402;2022-10-17T12:03:05;7.70;;;1.88;;
48881;SDS011;57063;51.406;-2.402;2022-10-17T12:05:43;18.15;;;4.03;;
48881;SDS011;57063;51.406;-2.402;2022-10-17T12:10:54;7.82;;;1.67;;
48881;SDS011;57063;51.406;-2.402;2022-10-17T12:15:56;6.10;;;1.27;;
48881;SDS011;57063;51.406;-2.402;2022-10-17T12:18:42;7.40;;;1.30;;
48881;SDS011;57063;51.406;-2.402;2022-10-17T12:21:07;7.55;;;1.83;;
48881;SDS011;57063;51.406;-2.402;2022-10-17T12:23:33;7.68;;;1.50;;
48881;SDS011;57063;51.406;-2.402;2022-10-17T12:26:04;9.75;;;1.70;;
48881;SDS011;57063;51.406;-2.402;2022-10-17T12:31:20;9.43;;;2.05;;
48881;SDS011;57063;51.406;-2.402;2022-10-17T13:00:17;7.68;;;1.27;;
48881;SDS011;57063;51.406;-2.402;2022-10-17T13:02:44;15.30;;;5.70;;
48881;SDS011;57063;51.406;-2.402;2022-10-17T13:10:23;4.80;;;0.98;;
48881;SDS011;57063;51.406;-2.402;2022-10-17T13:13:23;6.25;;;1.08;;
48881;SDS011;57063;51.406;-2.402;2022-10-17T13:18:53;9.35;;;1.40;;
48881;SDS011;57063;51.406;-2.402;2022-10-17T13:21:19;7.60;;;1.88;;
48881;SDS011;57063;51.406;-2.402;2022-10-17T13:23:45;7.78;;;1.33;;
48881;SDS011;57063;51.406;-2.402;2022-10-17T13:26:15;8.55;;;1.40;;
48881;SDS011;57063;51.406;-2.402;2022-10-17T13:31:29;5.57;;;1.48;;
48881;SDS011;57063;51.406;-2.402;2022-10-17T13:34:00;10.98;;;1.27;;
48881;SDS011;57063;51.406;-2.402;2022-10-17T13:36:27;9.88;;;1.40;;
48881;SDS011;57063;51.406;-2.402;2022-10-17T13:38:54;8.40;;;2.10;;
48881;SDS011;57063;51.406;-2.402;2022-10-17T13:41:24;12.02;;;1.85;;
48881;SDS011;57063;51.406;-2.402;2022-10-17T13:43:53;6.90;;;1.25;;
48881;SDS011;57063;51.406;-2.402;2022-10-17T13:46:26;8.65;;;1.73;;
48881;SDS011;57063;51.406;-2.402;2022-10-17T13:48:54;6.57;;;1.17;;
48881;SDS011;57063;51.406;-2.402;2022-10-17T13:51:22;7.90;;;0.85;;
48881;SDS011;57063;51.406;-2.402;2022-10-17T13:53:49;4.65;;;1.13;;
48881;SDS011;57063;51.406;-2.402;2022-10-17T13:58:54;10.00;;;1.15;;
48881;SDS011;57063;51.406;-2.402;2022-10-17T14:01:41;10.07;;;2.17;;
48881;SDS011;57063;51.406;-2.402;2022-10-17T14:04:07;7.78;;;1.38;;
48881;SDS011;57063;51.406;-2.402;2022-10-17T14:06:33;12.27;;;2.22;;
48881;SDS011;57063;51.406;-2.402;2022-10-17T14:09:15;7.80;;;1.58;;
48881;SDS011;57063;51.406;-2.402;2022-10-17T14:11:57;8.98;;;1.60;;
48881;SDS011;57063;51.406;-2.402;2022-10-17T14:14:32;6.15;;;1.70;;
48881;SDS011;57063;51.406;-2.402;2022-10-17T14:16:58;7.80;;;1.33;;
48881;SDS011;57063;51.406;-2.402;2022-10-17T14:19:28;5.55;;;1.25;;
48881;SDS011;57063;51.406;-2.402;2022-10-17T14:22:15;11.18;;;1.75;;
48881;SDS011;57063;51.406;-2.402;2022-10-17T14:24:47;9.45;;;1.48;;
48881;SDS011;57063;51.406;-2.402;2022-10-17T14:32:50;7.43;;;1.13;;
48881;SDS011;57063;51.406;-2.402;2022-10-17T14:35:20;8.23;;;1.65;;
48881;SDS011;57063;51.406;-2.402;2022-10-17T14:37:47;6.18;;;1.42;;
48881;SDS011;57063;51.406;-2.402;2022-10-17T14:40:16;4.82;;;1.25;;
48881;SDS011;57063;51.406;-2.402;2022-10-17T14:42:43;16.77;;;2.00;;
48881;SDS011;57063;51.406;-2.402;2022-10-17T14:45:14;8.85;;;1.48;;
48881;SDS011;57063;51.406;-2.402;2022-10-17T14:47:50;8.75;;;1.85;;
48881;SDS011;57063;51.406;-2.402;2022-10-17T14:50:20;5.95;;;1.50;;
48881;SDS011;57063;51.406;-2.402;2022-10-17T14:55:37;7.00;;;1.55;;
48881;SDS011;57063;51.406;-2.402;2022-10-17T14:58:17;8.75;;;1.15;;
48881;SDS011;57063;51.406;-2.402;2022-10-17T15:00:46;9.00;;;1.55;;
48881;SDS011;57063;51.406;-2.402;2022-10-17T15:03:12;9.07;;;1.48;;
48881;SDS011;57063;51.406;-2.402;2022-10-17T15:05:37;6.93;;;1.63;;
48881;SDS011;57063;51.406;-2.402;2022-10-17T15:08:04;9.07;;;1.20;;
48881;SDS011;57063;51.406;-2.402;2022-10-17T15:10:36;9.45;;;1.20;;
48881;SDS011;57063;51.406;-2.402;2022-10-17T15:13:05;9.13;;;1.42;;
48881;SDS011;57063;51.406;-2.402;2022-10-17T15:15:32;13.85;;;1.08;;
48881;SDS011;57063;51.406;-2.402;2022-10-17T15:17:58;13.02;;;2.13;;
48881;SDS011;57063;51.406;-2.402;2022-10-17T15:20:24;7.72;;;1.50;;
48881;SDS011;57063;51.406;-2.402;2022-10-17T15:22:55;7.10;;;1.50;;
48881;SDS011;57063;51.406;-2.402;2022-10-17T15:25:22;11.48;;;1.80;;
48881;SDS011;57063;51.406;-2.402;2022-10-17T15:27:49;7.90;;;1.83;;
48881;SDS011;57063;51.406;-2.402;2022-10-17T15:32:43;11.75;;;2.70;;
48881;SDS011;57063;51.406;-2.402;2022-10-17T15:35:08;10.50;;;2.33;;
48881;SDS011;57063;51.406;-2.402;2022-10-17T15:37:34;12.70;;;1.88;;
48881;SDS011;57063;51.406;-2.402;2022-10-17T15:39:59;8.00;;;1.88;;
48881;SDS011;57063;51.406;-2.402;2022-10-17T15:42:26;13.45;;;2.10;;
48881;SDS011;57063;51.406;-2.402;2022-10-17T15:44:53;14.40;;;1.90;;
48881;SDS011;57063;51.406;-2.402;2022-10-17T15:49:47;11.07;;;2.10;;
48881;SDS011;57063;51.406;-2.402;2022-10-17T15:52:13;15.13;;;3.05;;
48881;SDS011;57063;51.406;-2.402;2022-10-17T15:54:38;6.65;;;1.85;;
48881;SDS011;57063;51.406;-2.402;2022-10-17T15:57:04;11.52;;;2.40;;
48881;SDS011;57063;51.406;-2.402;2022-10-17T15:59:31;10.77;;;3.40;;
48881;SDS011;57063;51.406;-2.402;2022-10-17T16:01:58;12.77;;;2.75;;
48881;SDS011;57063;51.406;-2.402;2022-10-17T16:04:24;11.30;;;3.40;;
48881;SDS011;57063;51.406;-2.402;2022-10-17T16:06:51;13.95;;;2.50;;
48881;SDS011;57063;51.406;-2.402;2022-10-17T16:09:17;11.40;;;2.45;;
48881;SDS011;57063;51.406;-2.402;2022-10-17T16:11:42;12.30;;;2.17;;
48881;SDS011;57063;51.406;-2.402;2022-10-17T16:14:10;10.25;;;2.17;;
48881;SDS011;57063;51.406;-2.402;2022-10-17T16:16:37;16.50;;;2.28;;
48881;SDS011;57063;51.406;-2.402;2022-10-17T16:19:02;11.93;;;2.03;;
48881;SDS011;57063;51.406;-2.402;2022-10-17T16:21:29;20.13;;;3.22;;
48881;SDS011;57063;51.406;-2.402;2022-10-17T16:23:57;10.27;;;2.65;;
48881;SDS011;57063;51.406;-2.402;2022-10-17T16:26:23;10.75;;;2.33;;
48881;SDS011;57063;51.406;-2.402;2022-10-17T16:28:48;9.27;;;2.40;;
48881;SDS011;57063;51.406;-2.402;2022-10-17T16:31:21;11.13;;;2.63;;
48881;SDS011;57063;51.406;-2.402;2022-10-17T16:33:53;10.07;;;2.35;;
48881;SDS011;57063;51.406;-2.402;2022-10-17T16:36:20;12.10;;;3.38;;
48881;SDS011;57063;51.406;-2.402;2022-10-17T16:38:46;10.70;;;2.50;;
48881;SDS011;57063;51.406;-2.402;2022-10-17T16:41:34;13.27;;;2.88;;
48881;SDS011;57063;51.406;-2.402;2022-10-17T16:44:06;11.98;;;3.40;;
48881;SDS011;57063;51.406;-2.402;2022-10-17T16:46:34;11.90;;;3.67;;
48881;SDS011;57063;51.406;-2.402;2022-10-17T16:49:01;11.90;;;4.10;;
48881;SDS011;57063;51.406;-2.402;2022-10-17T16:51:28;15.63;;;4.63;;
48881;SDS011;57063;51.406;-2.402;2022-10-17T16:53:53;13.55;;;3.85;;
48881;SDS011;57063;51.406;-2.402;2022-10-17T16:56:21;10.75;;;3.28;;
48881;SDS011;57063;51.406;-2.402;2022-10-17T16:58:48;10.15;;;2.95;;
48881;SDS011;57063;51.406;-2.402;2022-10-17T17:01:15;9.45;;;2.65;;
48881;SDS011;57063;51.406;-2.402;2022-10-17T17:03:44;13.52;;;1.92;;
48881;SDS011;57063;51.406;-2.402;2022-10-17T17:06:15;8.52;;;2.08;;
48881;SDS011;57063;51.406;-2.402;2022-10-17T17:08:43;7.63;;;1.30;;
48881;SDS011;57063;51.406;-2.402;2022-10-17T17:11:10;6.95;;;1.80;;
48881;SDS011;57063;51.406;-2.402;2022-10-17T17:13:37;8.82;;;2.53;;
48881;SDS011;57063;51.406;-2.402;2022-10-17T17:16:13;6.68;;;1.80;;
48881;SDS011;57063;51.406;-2.402;2022-10-17T17:18:40;14.20;;;2.13;;
48881;SDS011;57063;51.406;-2.402;2022-10-17T17:21:07;9.85;;;2.17;;
48881;SDS011;57063;51.406;-2.402;2022-10-17T17:23:37;10.95;;;2.47;;
48881;SDS011;57063;51.406;-2.402;2022-10-17T17:26:12;14.00;;;2.05;;
48881;SDS011;57063;51.406;-2.402;2022-10-17T17:28:39;7.97;;;1.90;;
48881;SDS011;57063;51.406;-2.402;2022-10-17T17:31:06;12.45;;;2.72;;
48881;SDS011;57063;51.406;-2.402;2022-10-17T17:33:34;14.57;;;2.53;;
48881;SDS011;57063;51.406;-2.402;2022-10-17T17:36:01;7.40;;;1.65;;
48881;SDS011;57063;51.406;-2.402;2022-10-17T17:38:27;7.88;;;1.73;;
48881;SDS011;57063;51.406;-2.402;2022-10-17T17:40:54;7.93;;;2.03;;
48881;SDS011;57063;51.406;-2.402;2022-10-17T17:43:20;7.95;;;1.33;;
48881;SDS011;57063;51.406;-2.402;2022-10-17T17:45:45;12.73;;;2.00;;
48881;SDS011;57063;51.406;-2.402;2022-10-17T17:48:11;8.60;;;1.50;;
48881;SDS011;57063;51.406;-2.402;2022-10-17T17:50:38;8.02;;;1.92;;
48881;SDS011;57063;51.406;-2.402;2022-10-17T17:53:05;13.20;;;2.22;;
48881;SDS011;57063;51.406;-2.402;2022-10-17T17:55:31;16.55;;;2.17;;
48881;SDS011;57063;51.406;-2.402;2022-10-17T17:57:57;9.52;;;1.23;;
48881;SDS011;57063;51.406;-2.402;2022-10-17T18:00:22;8.63;;;1.67;;
48881;SDS011;57063;51.406;-2.402;2022-10-17T18:02:48;13.35;;;2.40;;
48881;SDS011;57063;51.406;-2.402;2022-10-17T18:05:13;11.63;;;2.08;;
48881;SDS011;57063;51.406;-2.402;2022-10-17T18:07:39;9.18;;;2.03;;
48881;SDS011;57063;51.406;-2.402;2022-10-17T18:10:04;9.07;;;1.58;;
48881;SDS011;57063;51.406;-2.402;2022-10-17T18:12:30;9.35;;;1.58;;
48881;SDS011;57063;51.406;-2.402;2022-10-17T18:14:58;5.95;;;1.75;;
48881;SDS011;57063;51.406;-2.402;2022-10-17T18:17:24;6.75;;;1.83;;
48881;SDS011;57063;51.406;-2.402;2022-10-17T18:19:49;15.20;;;3.28;;
48881;SDS011;57063;51.406;-2.402;2022-10-17T18:22:14;9.15;;;2.10;;
48881;SDS011;57063;51.406;-2.402;2022-10-17T18:24:40;15.85;;;3.10;;
48881;SDS011;57063;51.406;-2.402;2022-10-17T18:27:05;19.45;;;3.50;;
48881;SDS011;57063;51.406;-2.402;2022-10-17T18:29:31;13.68;;;2.97;;
48881;SDS011;57063;51.406;-2.402;2022-10-17T18:31:57;12.52;;;3.08;;
48881;SDS011;57063;51.406;-2.402;2022-10-17T18:34:23;13.05;;;2.50;;
48881;SDS011;57063;51.406;-2.402;2022-10-17T18:36:49;6.43;;;1.55;;
48881;SDS011;57063;51.406;-2.402;2022-10-17T18:39:16;10.80;;;1.20;;
48881;SDS011;57063;51.406;-2.402;2022-10-17T18:41:42;8.50;;;1.77;;
48881;SDS011;57063;51.406;-2.402;2022-10-17T18:44:08;11.82;;;1.67;;
48881;SDS011;57063;51.406;-2.402;2022-10-17T18:46:34;10.50;;;1.83;;
48881;SDS011;57063;51.406;-2.402;2022-10-17T18:49:04;26.13;;;3.05;;
48881;SDS011;57063;51.406;-2.402;2022-10-17T18:51:31;16.05;;;3.70;;
48881;SDS011;57063;51.406;-2.402;2022-10-17T18:53:56;14.68;;;3.60;;
48881;SDS011;57063;51.406;-2.402;2022-10-17T18:56:22;9.98;;;1.70;;
48881;SDS011;57063;51.406;-2.402;2022-10-17T18:58:48;10.45;;;2.25;;